Time;durP1;ratioP1;P1;durP2;ratioP2;P2;SDS_P1;SDS_P2;PMS_P1;PMS_P2;Temp;Humidity;BMP_temperature;BMP_pressure;BME280_temperature;BME280_humidity;BME280_pressure;Samples;Min_cycle;Max_cycle;Signal;HPM_P1;HPM_P2
2022/06/18 10:48:23;;;;;;;;;;;;;;;;;;5032568;28;7028;-63
2022/06/18 10:50:51;;;;;;;;;;;;;;;;;;5031966;28;7305;-58
2022/06/18 10:56:31;;;;;;;;;;;;;;;;;;5032030;28;6894;-58
2022/06/18 10:58:59;;;;;;;;;;;;;;;;;;5032146;28;7160;-58
2022/06/18 11:01:55;;;;;;;;;;;;;;;;;;5031812;28;6925;-58
2022/06/18 11:04:24;;;;;;;;;;;;;;;;;;5031754;28;7167;-58
2022/06/18 11:06:54;;;;;;;;;;;;;;;;;;5031642;28;7232;-58
2022/06/18 11:12:29;;;;;;;;;;;;;;;;;;5032059;28;6801;-58
2022/06/18 11:14:55;;;;;;;;;;;;;;;;;;5031842;28;7318;-58
2022/06/18 11:20:23;;;;;;;;;;;;;;;;;;5031945;28;7279;-58
2022/06/18 11:22:52;;;;;;;;;;;;;;;;;;5031425;28;7264;-58
2022/06/18 11:25:22;;;;;;;;;;;;;;;;;;5031186;28;6944;-58
2022/06/18 11:27:48;;;;;;;;;;;;;;;;;;5031435;28;7291;-58
2022/06/18 11:30:17;;;;;;;;;;;;;;;;;;5031509;28;7587;-58
2022/06/18 11:32:47;;;;;;;;;;;;;;;;;;5031106;28;7138;-58
2022/06/18 11:38:06;;;;;;;;;;;;;;;;;;5031765;28;6928;-58
2022/06/18 11:40:33;;;;;;;;;;;;;;;;;;5031327;28;7595;-58
2022/06/18 11:43:21;;;;;;;;;;;;;;;;;;5031673;28;7231;-58
2022/06/18 11:45:57;;;;;;;;;;;;;;;;;;5031962;28;7339;-58
2022/06/18 11:51:26;;;;;;;;;;;;;;;;;;5030616;28;6801;-58
2022/06/18 11:54:33;;;;;;;;;;;;;;;;;;5030515;28;7629;-58
2022/06/18 11:57:24;;;;;;;;;;;;;;;;;;5017640;28;7365;-58
2022/06/18 11:59:56;;;;;;;;;;;;;;;;;;5017453;28;7562;-58
2022/06/18 12:03:12;;;;;;;;;;;;;;;;;;5016394;28;8794;-58
2022/06/18 12:06:11;;;;;;;;;;;;;;;;;;5035170;28;7318;-58
2022/06/18 12:08:38;;;;;;;;;;;;;;;;;;5035059;28;7614;-58
2022/06/18 12:14:09;;;;;;;;;;;;;;;;;;5035227;28;7038;-58
2022/06/18 12:16:37;;;;;;;;;;;;;;;;;;5034956;28;7180;-58
2022/06/18 12:19:26;;;;;;;;;;;;;;;;;;5034736;28;7156;-58
2022/06/18 12:24:54;;;;;;;;;;;;;;;;;;5035225;28;7030;-58
2022/06/18 12:27:25;;;;;;;;;;;;;;;;;;4993908;28;11839;-58
2022/06/18 12:36:26;;;;;;;;;;;;;;;;;;5013949;28;6831;-58
2022/06/18 12:38:58;;;;;;;;;;;;;;;;;;5013968;28;7137;-58
2022/06/18 12:48:04;;;;;;;;;;;;;;;;;;4996099;28;7314;-58
2022/06/18 12:50:42;;;;;;;;;;;;;;;;;;4996336;28;7123;-58
2022/06/18 12:53:30;;;;;;;;;;;;;;;;;;4996012;28;7257;-58
2022/06/18 13:02:27;;;;;;;;;;;;;;;;;;4995942;28;6826;-63
2022/06/18 13:08:28;;;;;;;;;;;;;;;;;;4994733;28;6819;-63
2022/06/18 13:11:05;;;;;;;;;;;;;;;;;;4995725;28;7471;-62
2022/06/18 13:13:40;;;;;;;;;;;;;;;;;;4995306;28;7550;-62
2022/06/18 13:16:11;;;;;;;;;;;;;;;;;;4995472;28;7181;-62
2022/06/18 13:18:46;;;;;;;;;;;;;;;;;;4996010;28;7489;-62
2022/06/18 13:21:15;;;;;;;;;;;;;;;;;;4995774;28;7389;-61
2022/06/18 13:29:58;;;;;;;;;;;;;;;;;;4981074;28;7124;-61
2022/06/18 13:32:28;;;;;;;;;;;;;;;;;;4994242;28;7352;-61
2022/06/18 13:38:03;;;;;;;;;;;;;;;;;;4995581;28;7131;-61
2022/06/18 13:40:52;;;;;;;;;;;;;;;;;;4995327;28;7478;-61
2022/06/18 13:58:57;;;;;;;;;;;;;;;;;;4975729;28;6949;-61
2022/06/18 14:01:24;;;;;;;;;;;;;;;;;;4976973;28;7261;-61
2022/06/18 14:04:03;;;;;;;;;;;;;;;;;;4969908;28;7134;-61
2022/06/18 14:06:29;;;;;;;;;;;;;;;;;;4957513;28;7075;-62
2022/06/18 14:11:50;;;;;;;;;;;;;;;;;;4957110;28;7206;-62
2022/06/18 14:14:35;;;;;;;;;;;;;;;;;;4956191;28;7478;-63
2022/06/18 14:17:10;;;;;;;;;;;;;;;;;;4957691;28;7183;-63
2022/06/18 14:19:38;;;;;;;;;;;;;;;;;;4968033;28;7095;-63
2022/06/18 14:22:27;;;;;;;;;;;;;;;;;;4973176;28;7182;-62
2022/06/18 14:25:01;;;;;;;;;;;;;;;;;;4976046;28;7489;-61
2022/06/18 14:27:42;;;;;;;;;;;;;;;;;;4965462;28;7262;-63
2022/06/18 14:33:08;;;;;;;;;;;;;;;;;;4975510;28;7218;-63
2022/06/18 14:35:46;;;;;;;;;;;;;;;;;;4966013;28;7502;-62
2022/06/18 14:38:14;;;;;;;;;;;;;;;;;;4975332;28;7278;-61
2022/06/18 14:43:40;;;;;;;;;;;;;;;;;;4975770;28;6896;-62
2022/06/18 14:46:18;;;;;;;;;;;;;;;;;;4992320;28;6902;-62
2022/06/18 14:48:54;;;;;;;;;;;;;;;;;;4995409;28;7067;-64
2022/06/18 14:51:49;;;;;;;;;;;;;;;;;;4995065;28;7228;-64
2022/06/18 14:54:33;;;;;;;;;;;;;;;;;;4995200;28;6906;-64
2022/06/18 14:57:02;;;;;;;;;;;;;;;;;;4995350;28;7262;-62
2022/06/18 14:59:46;;;;;;;;;;;;;;;;;;4993355;28;7350;-60
2022/06/18 15:02:31;;;;;;;;;;;;;;;;;;4994416;28;7499;-60
2022/06/18 15:05:15;;;;;;;;;;;;;;;;;;4994185;28;6931;-61
2022/06/18 15:07:41;;;;;;;;;;;;;;;;;;4994172;28;7329;-62
2022/06/18 15:10:15;;;;;;;;;;;;;;;;;;4995378;28;7067;-58
2022/06/18 15:12:41;;;;;;;;;;;;;;;;;;4995413;28;7260;-58
2022/06/18 15:15:09;;;;;;;;;;;;;;;;;;4995263;28;7305;-58
2022/06/18 15:21:02;;;;;;;;;;;;;;;;;;5010137;28;7305;-58
2022/06/18 15:26:19;;;;;;;;;;;;;;;;;;4995008;28;6900;-58
2022/06/18 15:28:48;;;;;;;;;;;;;;;;;;4995241;28;7058;-58
2022/06/18 15:34:16;;;;;;;;;;;;;;;;;;4996603;28;6896;-60
2022/06/18 15:36:43;;;;;;;;;;;;;;;;;;4996221;28;7232;-60
2022/06/18 15:39:16;;;;;;;;;;;;;;;;;;4981536;28;7721;-60
2022/06/18 15:41:50;;;;;;;;;;;;;;;;;;4984268;28;7364;-58
2022/06/18 15:44:23;;;;;;;;;;;;;;;;;;4996252;28;7316;-57
2022/06/18 15:46:57;;;;;;;;;;;;;;;;;;4997211;28;7442;-57
2022/06/18 15:49:34;;;;;;;;;;;;;;;;;;4997392;28;7325;-57
2022/06/18 15:52:02;;;;;;;;;;;;;;;;;;4996249;28;7201;-60
2022/06/18 15:54:33;;;;;;;;;;;;;;;;;;4992956;28;7254;-59
2022/06/18 16:00:05;;;;;;;;;;;;;;;;;;4978360;28;7097;-59
2022/06/18 16:02:32;;;;;;;;;;;;;;;;;;4985494;28;7149;-59
2022/06/18 16:04:59;;;;;;;;;;;;;;;;;;4997821;28;7339;-59
2022/06/18 16:07:25;;;;;;;;;;;;;;;;;;4997739;28;7186;-62
2022/06/18 16:10:04;;;;;;;;;;;;;;;;;;4998583;28;7461;-62
2022/06/18 16:15:46;;;;;;;;;;;;;;;;;;4997432;28;6856;-58
2022/06/18 16:18:20;;;;;;;;;;;;;;;;;;4997418;28;7025;-58
2022/06/18 16:23:55;;;;;;;;;;;;;;;;;;4997441;28;6768;-57
2022/06/18 16:26:24;;;;;;;;;;;;;;;;;;4997800;28;7419;-59
2022/06/18 16:29:02;;;;;;;;;;;;;;;;;;4997522;28;7226;-59
2022/06/18 16:31:38;;;;;;;;;;;;;;;;;;4997599;28;6957;-58
2022/06/18 16:34:10;;;;;;;;;;;;;;;;;;4980443;28;7133;-58
2022/06/18 16:37:03;;;;;;;;;;;;;;;;;;4997239;28;7410;-60
2022/06/18 16:40:13;;;;;;;;;;;;;;;;;;4997540;28;7552;-60
2022/06/18 16:45:45;;;;;;;;;;;;;;;;;;4996934;28;7108;-57
2022/06/18 16:48:26;;;;;;;;;;;;;;;;;;4997131;28;6917;-57
2022/06/18 16:51:19;;;;;;;;;;;;;;;;;;4996291;28;7119;-58
2022/06/18 16:53:47;;;;;;;;;;;;;;;;;;4993625;28;7157;-57
2022/06/18 16:56:15;;;;;;;;;;;;;;;;;;4996667;28;7130;-57
2022/06/18 16:58:42;;;;;;;;;;;;;;;;;;4997119;28;7986;-57
2022/06/18 17:01:08;;;;;;;;;;;;;;;;;;4996951;28;7861;-58
2022/06/18 17:03:34;;;;;;;;;;;;;;;;;;4997013;28;7023;-57
2022/06/18 17:06:14;;;;;;;;;;;;;;;;;;4997715;28;7397;-57
2022/06/18 17:08:42;;;;;;;;;;;;;;;;;;4997620;28;7054;-57
2022/06/18 17:11:10;;;;;;;;;;;;;;;;;;4996189;28;7501;-56
2022/06/18 17:13:37;;;;;;;;;;;;;;;;;;4996207;28;7475;-56
2022/06/18 17:16:23;;;;;;;;;;;;;;;;;;4987346;28;7111;-57
2022/06/18 17:18:48;;;;;;;;;;;;;;;;;;4995918;28;7520;-57
2022/06/18 17:21:14;;;;;;;;;;;;;;;;;;4996671;28;7267;-57
2022/06/18 17:32:07;;;;;;;;;;;;;;;;;;4996462;28;7255;-57
2022/06/18 17:34:32;;;;;;;;;;;;;;;;;;4996180;28;7209;-57
2022/06/18 17:36:58;;;;;;;;;;;;;;;;;;4995921;28;6953;-57
2022/06/18 17:39:25;;;;;;;;;;;;;;;;;;4996334;28;7215;-56
2022/06/18 17:41:50;;;;;;;;;;;;;;;;;;4995569;28;7003;-56
2022/06/18 17:44:20;;;;;;;;;;;;;;;;;;4992781;28;7214;-56
2022/06/18 17:46:45;;;;;;;;;;;;;;;;;;4996507;28;7022;-55
2022/06/18 17:49:24;;;;;;;;;;;;;;;;;;4997015;28;7209;-57
2022/06/18 17:51:49;;;;;;;;;;;;;;;;;;4996056;28;7550;-57
2022/06/18 17:54:15;;;;;;;;;;;;;;;;;;4996396;28;6854;-56
2022/06/18 17:56:41;;;;;;;;;;;;;;;;;;4995570;28;7989;-59
2022/06/18 17:59:15;;;;;;;;;;;;;;;;;;4995764;28;7067;-56
2022/06/18 18:01:44;;;;;;;;;;;;;;;;;;4996299;28;6890;-55
2022/06/18 18:04:25;;;;;;;;;;;;;;;;;;4995793;28;7152;-56
2022/06/18 18:06:58;;;;;;;;;;;;;;;;;;4996001;28;6889;-56
2022/06/18 18:09:24;;;;;;;;;;;;;;;;;;4995648;28;7109;-56
2022/06/18 18:11:51;;;;;;;;;;;;;;;;;;4996519;28;7194;-56
2022/06/18 18:14:20;;;;;;;;;;;;;;;;;;4996270;28;7272;-56
2022/06/18 18:16:47;;;;;;;;;;;;;;;;;;4994285;28;7393;-55
2022/06/18 18:19:13;;;;;;;;;;;;;;;;;;4995500;28;7196;-55
2022/06/18 18:24:41;;;;;;;;;;;;;;;;;;4996590;28;6708;-56
2022/06/18 18:27:18;;;;;;;;;;;;;;;;;;4995624;28;7036;-56
2022/06/18 18:29:47;;;;;;;;;;;;;;;;;;4995763;28;7225;-56
2022/06/18 18:32:27;;;;;;;;;;;;;;;;;;4995294;28;7231;-55
2022/06/18 18:34:53;;;;;;;;;;;;;;;;;;4995485;28;7237;-56
2022/06/18 18:37:19;;;;;;;;;;;;;;;;;;4994587;28;7347;-55
2022/06/18 18:39:45;;;;;;;;;;;;;;;;;;4995813;28;7238;-56
2022/06/18 18:42:21;;;;;;;;;;;;;;;;;;4995508;28;7019;-56
2022/06/18 18:44:47;;;;;;;;;;;;;;;;;;4995208;28;7337;-55
2022/06/18 18:47:14;;;;;;;;;;;;;;;;;;4995922;28;7091;-56
2022/06/18 18:49:41;;;;;;;;;;;;;;;;;;4995333;28;7288;-55
2022/06/18 18:52:08;;;;;;;;;;;;;;;;;;4996066;28;7215;-56
2022/06/18 18:54:35;;;;;;;;;;;;;;;;;;4994851;28;7543;-56
2022/06/18 18:57:01;;;;;;;;;;;;;;;;;;4995626;28;7214;-55
2022/06/18 18:59:37;;;;;;;;;;;;;;;;;;4995163;28;6987;-56
2022/06/18 19:02:05;;;;;;;;;;;;;;;;;;4995841;28;7181;-56
2022/06/18 19:04:31;;;;;;;;;;;;;;;;;;4995784;28;7184;-57
2022/06/18 19:07:01;;;;;;;;;;;;;;;;;;4999718;28;7203;-55
2022/06/18 19:09:27;;;;;;;;;;;;;;;;;;5001128;28;7070;-56
2022/06/18 19:15:07;;;;;;;;;;;;;;;;;;4998794;28;6817;-55
2022/06/18 19:17:32;;;;;;;;;;;;;;;;;;5000049;28;7140;-55
2022/06/18 19:20:03;;;;;;;;;;;;;;;;;;4998779;28;7406;-53
2022/06/18 19:22:28;;;;;;;;;;;;;;;;;;4999554;28;6978;-54
2022/06/18 19:28:19;;;;;;;;;;;;;;;;;;4998447;28;6724;-53
2022/06/18 19:30:45;;;;;;;;;;;;;;;;;;4998731;28;7179;-53
2022/06/18 19:33:12;;;;;;;;;;;;;;;;;;4999450;28;7091;-54
2022/06/18 19:35:39;;;;;;;;;;;;;;;;;;4998284;28;6960;-55
2022/06/18 19:38:05;;;;;;;;;;;;;;;;;;4998557;28;6825;-53
2022/06/18 19:40:31;;;;;;;;;;;;;;;;;;4998529;28;6980;-54
2022/06/18 19:42:57;;;;;;;;;;;;;;;;;;4998373;28;7059;-55
2022/06/18 19:45:25;;;;;;;;;;;;;;;;;;4998039;28;7219;-55
2022/06/18 19:50:55;;;;;;;;;;;;;;;;;;4998090;28;6944;-52
2022/06/18 19:53:22;;;;;;;;;;;;;;;;;;4997919;28;7268;-50
2022/06/18 19:55:48;;;;;;;;;;;;;;;;;;4998082;28;7220;-54
2022/06/18 19:58:14;;;;;;;;;;;;;;;;;;4997721;28;7822;-54
2022/06/18 20:00:57;;;;;;;;;;;;;;;;;;4997913;28;7168;-54
2022/06/18 20:03:22;;;;;;;;;;;;;;;;;;4998479;28;7115;-58
2022/06/18 20:06:13;;;;;;;;;;;;;;;;;;4998818;28;7015;-58
2022/06/18 20:08:39;;;;;;;;;;;;;;;;;;4997636;28;6938;-58
2022/06/18 20:11:25;;;;;;;;;;;;;;;;;;4997771;28;7457;-58
2022/06/18 20:13:50;;;;;;;;;;;;;;;;;;4997431;28;8029;-58
2022/06/18 20:16:20;;;;;;;;;;;;;;;;;;4997533;28;7163;-58
2022/06/18 20:18:48;;;;;;;;;;;;;;;;;;4997989;28;7015;-58
2022/06/18 20:21:17;;;;;;;;;;;;;;;;;;4997497;28;7934;-58
2022/06/18 20:23:46;;;;;;;;;;;;;;;;;;4998388;28;7309;-58
2022/06/18 20:26:52;;;;;;;;;;;;;;;;;;4997918;28;7405;-58
2022/06/18 20:29:17;;;;;;;;;;;;;;;;;;4997915;28;7046;-58
2022/06/18 20:31:45;;;;;;;;;;;;;;;;;;4997740;28;7182;-58
2022/06/18 20:34:11;;;;;;;;;;;;;;;;;;4997493;28;7284;-58
2022/06/18 20:36:37;;;;;;;;;;;;;;;;;;4997440;28;6969;-58
2022/06/18 20:39:03;;;;;;;;;;;;;;;;;;4997931;28;7121;-58
2022/06/18 20:41:29;;;;;;;;;;;;;;;;;;4996945;28;7243;-58
2022/06/18 20:43:57;;;;;;;;;;;;;;;;;;4997098;28;7307;-58
2022/06/18 20:46:26;;;;;;;;;;;;;;;;;;4997277;28;7071;-58
2022/06/18 20:48:58;;;;;;;;;;;;;;;;;;4997405;28;7219;-58
2022/06/18 20:51:36;;;;;;;;;;;;;;;;;;4997177;28;7296;-58
2022/06/18 20:59:56;;;;;;;;;;;;;;;;;;4997557;28;6810;-58
2022/06/18 21:02:21;;;;;;;;;;;;;;;;;;4998050;28;6941;-58
2022/06/18 21:04:50;;;;;;;;;;;;;;;;;;4997142;28;6944;-58
2022/06/18 21:07:16;;;;;;;;;;;;;;;;;;4996579;28;6979;-58
2022/06/18 21:09:41;;;;;;;;;;;;;;;;;;4996813;28;7385;-58
2022/06/18 21:12:10;;;;;;;;;;;;;;;;;;4998319;28;6974;-58
2022/06/18 21:14:36;;;;;;;;;;;;;;;;;;4996915;28;7309;-58
2022/06/18 21:17:11;;;;;;;;;;;;;;;;;;4870765;28;12196;-58
2022/06/18 21:19:37;;;;;;;;;;;;;;;;;;4984945;28;8422;-58
2022/06/18 21:22:17;;;;;;;;;;;;;;;;;;4997628;28;7191;-58
2022/06/18 21:24:43;;;;;;;;;;;;;;;;;;4977259;28;7131;-58
2022/06/18 21:27:14;;;;;;;;;;;;;;;;;;4988378;28;7155;-58
2022/06/18 21:30:11;;;;;;;;;;;;;;;;;;4997077;28;7180;-58
2022/06/18 21:38:07;;;;;;;;;;;;;;;;;;4996210;28;6929;-58
2022/06/18 21:41:08;;;;;;;;;;;;;;;;;;4996550;28;7164;-58
2022/06/18 21:43:35;;;;;;;;;;;;;;;;;;4993375;23;7614;-86
2022/06/18 21:46:01;;;;;;;;;;;;;;;;;;4958629;28;7210;-86
2022/06/18 21:48:29;;;;;;;;;;;;;;;;;;4959853;28;7143;-85
2022/06/18 21:50:55;;;;;;;;;;;;;;;;;;4959494;28;8744;-85
2022/06/18 21:53:21;;;;;;;;;;;;;;;;;;4959559;28;7247;-86
2022/06/18 21:55:52;;;;;;;;;;;;;;;;;;4959340;28;8732;-86
2022/06/18 21:58:23;;;;;;;;;;;;;;;;;;4959645;28;8738;-85
2022/06/18 22:00:50;;;;;;;;;;;;;;;;;;4959868;28;7185;-85
2022/06/18 22:03:17;;;;;;;;;;;;;;;;;;4975342;28;7218;-86
2022/06/18 22:05:43;;;;;;;;;;;;;;;;;;4959373;28;7637;-87
2022/06/18 22:08:10;;;;;;;;;;;;;;;;;;4959291;28;7106;-85
2022/06/18 22:10:37;;;;;;;;;;;;;;;;;;4958973;28;7261;-84
2022/06/18 22:18:33;;;;;;;;;;;;;;;;;;4976358;28;6971;-85
2022/06/18 22:20:59;;;;;;;;;;;;;;;;;;4959248;28;7092;-86
2022/06/18 22:23:28;;;;;;;;;;;;;;;;;;4959275;28;7037;-85
2022/06/18 22:25:54;;;;;;;;;;;;;;;;;;4959411;28;7401;-85
2022/06/18 22:28:21;;;;;;;;;;;;;;;;;;4959026;28;8380;-86
2022/06/18 22:30:47;;;;;;;;;;;;;;;;;;4958951;28;8404;-85
2022/06/18 22:33:13;;;;;;;;;;;;;;;;;;4959094;28;7948;-85
2022/06/18 22:35:39;;;;;;;;;;;;;;;;;;4959258;28;7587;-86
2022/06/18 22:38:06;;;;;;;;;;;;;;;;;;4958900;28;7050;-85
2022/06/18 22:40:34;;;;;;;;;;;;;;;;;;4958875;28;7314;-85
2022/06/18 22:43:00;;;;;;;;;;;;;;;;;;4952005;28;8499;-85
2022/06/18 22:45:27;;;;;;;;;;;;;;;;;;4952328;28;7106;-85
2022/06/18 22:47:55;;;;;;;;;;;;;;;;;;4952687;28;7190;-84
2022/06/18 22:50:23;;;;;;;;;;;;;;;;;;4952102;28;7372;-86
2022/06/18 22:53:25;;;;;;;;;;;;;;;;;;4952210;28;7160;-85
2022/06/18 22:55:37;;;;;;;;;;;;;;;;;;4937117;28;6981;-85
2022/06/18 22:58:03;;;;;;;;;;;;;;;;;;4952506;28;7308;-85
2022/06/18 23:00:28;;;;;;;;;;;;;;;;;;4952046;28;7399;-85
2022/06/18 23:02:54;;;;;;;;;;;;;;;;;;4952251;28;9355;-85
2022/06/18 23:05:19;;;;;;;;;;;;;;;;;;4952285;28;7004;-85
2022/06/18 23:07:47;;;;;;;;;;;;;;;;;;4951948;28;8728;-84
2022/06/18 23:10:12;;;;;;;;;;;;;;;;;;4952139;28;9092;-85
2022/06/18 23:12:38;;;;;;;;;;;;;;;;;;4952133;28;7123;-86
2022/06/18 23:15:06;;;;;;;;;;;;;;;;;;4952330;28;7400;-85
2022/06/18 23:17:34;;;;;;;;;;;;;;;;;;4943136;28;7186;-85
2022/06/18 23:20:00;;;;;;;;;;;;;;;;;;4937428;28;7151;-85
2022/06/18 23:22:27;;;;;;;;;;;;;;;;;;4933346;29;8633;-85
2022/06/18 23:24:52;;;;;;;;;;;;;;;;;;4932755;29;7162;-85
2022/06/18 23:27:17;;;;;;;;;;;;;;;;;;4939844;28;7143;-85
2022/06/18 23:29:43;;;;;;;;;;;;;;;;;;4962230;28;7236;-85
2022/06/18 23:32:12;;;;;;;;;;;;;;;;;;4962142;28;7058;-84
2022/06/18 23:34:41;;;;;;;;;;;;;;;;;;4960828;28;7144;-85
2022/06/18 23:37:11;;;;;;;;;;;;;;;;;;4960251;28;7290;-85
2022/06/18 23:39:37;;;;;;;;;;;;;;;;;;4966912;28;7401;-85
2022/06/18 23:42:04;;;;;;;;;;;;;;;;;;4975189;28;8448;-85
2022/06/18 23:44:33;;;;;;;;;;;;;;;;;;4990354;28;8309;-86
2022/06/18 23:47:00;;;;;;;;;;;;;;;;;;4989990;28;8862;-85
2022/06/18 23:49:26;;;;;;;;;;;;;;;;;;4990067;28;8398;-85
2022/06/18 23:51:56;;;;;;;;;;;;;;;;;;4992658;28;8488;-85
2022/06/18 23:54:22;;;;;;;;;;;;;;;;;;4993866;28;7218;-84
2022/06/18 23:56:48;;;;;;;;;;;;;;;;;;4993835;28;8508;-85
2022/06/18 23:59:14;;;;;;;;;;;;;;;;;;4993943;28;7045;-85
